createdAt,value
2018-04-10T00:03:16.405Z,7.7
2018-04-10T00:09:07.076Z,8.58
2018-04-10T00:14:57.730Z,9.35
2018-04-10T00:20:48.446Z,10.14
2018-04-10T00:26:39.103Z,10.28
2018-04-10T00:32:29.829Z,9.93
2018-04-10T00:38:20.497Z,11.4
2018-04-10T00:44:11.190Z,11.23
2018-04-10T00:50:01.883Z,11.44
2018-04-10T00:55:52.581Z,11.16
2018-04-10T01:01:43.278Z,11.27
2018-04-10T01:07:33.946Z,10.8
2018-04-10T01:13:24.656Z,2.77
2018-04-10T01:19:15.329Z,11.51
2018-04-10T01:25:06.047Z,10.22
2018-04-10T01:30:56.743Z,11.51
2018-04-10T01:36:47.414Z,11.8
2018-04-10T01:42:38.097Z,10.76
2018-04-10T01:48:28.841Z,10.54
2018-04-10T01:54:19.467Z,10.4
2018-04-10T02:00:10.164Z,9.22
2018-04-10T02:06:00.857Z,8.96
2018-04-10T02:17:42.286Z,11.56
2018-04-10T02:23:32.959Z,10.6
2018-04-10T02:29:23.629Z,10.21
2018-04-10T02:35:14.295Z,9.73
2018-04-10T02:41:04.990Z,7.78
2018-04-10T02:46:55.683Z,7.52
2018-04-10T02:52:46.343Z,7.21
2018-04-10T02:58:37.039Z,7.9
2018-04-10T03:04:27.759Z,7.74
2018-04-10T03:10:18.415Z,7.55
2018-04-10T03:16:09.115Z,9.32
2018-04-10T03:21:59.845Z,9.6
2018-04-10T03:27:50.494Z,8.44
2018-04-10T03:33:41.219Z,8.93
2018-04-10T03:39:31.885Z,8.06
2018-04-10T03:45:22.654Z,9.54
2018-04-10T03:51:13.242Z,7.99
2018-04-10T03:57:03.919Z,8.49
2018-04-10T04:02:54.598Z,8.11
2018-04-10T04:08:45.294Z,6.87
2018-04-10T04:14:36.021Z,7.25
2018-04-10T04:20:26.698Z,8.64
2018-04-10T04:26:17.443Z,6.49
2018-04-10T04:32:08.101Z,7.86
2018-04-10T04:37:58.819Z,6.64
2018-04-10T04:43:49.432Z,7.36
2018-04-10T04:49:40.119Z,7.35
2018-04-10T04:55:30.845Z,7.19
2018-04-10T05:01:21.514Z,6.57
2018-04-10T05:07:12.213Z,8.55
2018-04-10T05:13:02.901Z,8.43
2018-04-10T05:18:53.624Z,8.14
2018-04-10T05:24:44.310Z,7.97
2018-04-10T05:30:35.046Z,8.18
2018-04-10T05:36:25.716Z,7.39
2018-04-10T05:42:16.384Z,7.62
2018-04-10T05:48:07.078Z,8.04
2018-04-10T05:53:57.800Z,7.11
2018-04-10T05:59:48.532Z,7.57
2018-04-10T06:05:39.197Z,7.84
2018-04-10T06:11:30.012Z,7.93
2018-04-10T06:17:20.624Z,7.42
2018-04-10T06:23:11.328Z,7.05
2018-04-10T06:29:02.052Z,6.53
2018-04-10T06:34:52.740Z,6.36
2018-04-10T06:40:43.429Z,6.09
2018-04-10T06:46:34.171Z,6.06
2018-04-10T06:52:24.865Z,5.99
2018-04-10T06:58:15.593Z,5.4
2018-04-10T07:04:06.282Z,5.49
2018-04-10T07:09:57.019Z,4.69
2018-04-10T07:15:47.717Z,5.38
2018-04-10T07:21:38.451Z,5.12
2018-04-10T07:27:29.169Z,5.24
2018-04-10T07:33:19.906Z,4.55
2018-04-10T07:39:10.624Z,3.54
2018-04-10T07:45:01.405Z,3.36
2018-04-10T07:50:52.197Z,2.98
2018-04-10T07:56:42.883Z,3.04
2018-04-10T08:02:33.683Z,3.2
2018-04-10T08:08:24.427Z,3.27
2018-04-10T08:14:15.237Z,3.24
2018-04-10T08:20:06.002Z,3.55
2018-04-10T08:25:56.782Z,3.56
2018-04-10T08:31:47.526Z,3.53
2018-04-10T08:37:38.293Z,2.77
2018-04-10T08:43:29.097Z,3.59
2018-04-10T08:49:19.870Z,2.95
2018-04-10T08:55:10.654Z,3.37
2018-04-10T09:01:01.452Z,3.79
2018-04-10T09:06:52.224Z,3.33
2018-04-10T09:12:42.995Z,3.88
2018-04-10T09:18:33.793Z,3.03
2018-04-10T09:24:24.590Z,3.31
2018-04-10T09:30:15.343Z,3.38
2018-04-10T09:36:06.163Z,3.27
2018-04-10T09:41:56.936Z,3.71
2018-04-10T09:47:47.736Z,4.1
2018-04-10T09:53:38.468Z,3.47
2018-04-10T10:05:20.008Z,3.53
2018-04-10T10:11:10.821Z,3.13
2018-04-10T10:17:01.592Z,3.64
2018-04-10T10:22:52.321Z,3
2018-04-10T10:28:43.103Z,4.21
2018-04-10T10:34:33.817Z,3.58
2018-04-10T10:40:24.633Z,4.26
2018-04-10T10:46:15.325Z,4.07
2018-04-10T10:52:06.061Z,3.44
2018-04-10T10:57:56.818Z,3.39
2018-04-10T11:03:47.594Z,3.78
2018-04-10T11:09:38.345Z,4.05
2018-04-10T11:15:29.086Z,4.01
2018-04-10T11:21:19.873Z,4.42
2018-04-10T11:27:10.585Z,4.85
2018-04-10T11:33:01.305Z,3.97
2018-04-10T11:38:52.032Z,4.4
2018-04-10T11:44:42.750Z,5.2
2018-04-10T11:50:33.490Z,5.1
2018-04-10T11:56:24.221Z,5.5
2018-04-10T12:02:14.921Z,7.26
2018-04-10T12:08:05.683Z,6.93
2018-04-10T12:13:56.416Z,6.41
2018-04-10T12:19:47.156Z,5.45
2018-04-10T12:25:37.903Z,4.84
2018-04-10T12:31:28.593Z,4.36
2018-04-10T12:37:19.332Z,4.22
2018-04-10T12:43:10.074Z,3.76
2018-04-10T12:49:00.779Z,5.19
2018-04-10T12:54:51.492Z,4.17
2018-04-10T13:00:42.249Z,3.94
2018-04-10T13:06:32.949Z,4.31
2018-04-10T13:12:23.704Z,4.3
2018-04-10T13:18:14.418Z,5.87
2018-04-10T13:24:05.170Z,6.58
2018-04-10T13:29:55.824Z,5.66
2018-04-10T13:35:46.548Z,7
2018-04-10T13:41:37.369Z,4.91
2018-04-10T13:47:27.992Z,4.86
2018-04-10T13:53:18.668Z,5.31
2018-04-10T13:59:09.353Z,4.51
2018-04-10T14:05:00.042Z,5.72
2018-04-10T14:10:50.739Z,5.39
2018-04-10T14:16:41.459Z,5.37
2018-04-10T14:22:32.188Z,4.7
2018-04-10T14:28:22.886Z,4.33
2018-04-10T14:34:13.629Z,4.37
2018-04-10T14:40:04.284Z,2.6
2018-04-10T14:45:55.003Z,3
2018-04-10T14:51:45.684Z,2.62
2018-04-10T14:57:36.401Z,2.17
2018-04-10T15:03:27.124Z,1.92
2018-04-10T15:09:17.804Z,3.11
2018-04-10T15:15:08.526Z,2.9
2018-04-10T15:20:59.177Z,2.95
2018-04-10T15:26:49.889Z,3.32
2018-04-10T15:32:40.577Z,3.99
2018-04-10T15:38:31.287Z,2.8
2018-04-10T15:44:21.986Z,4.52
2018-04-10T15:50:12.684Z,5.56
2018-04-10T15:56:03.407Z,4.02
2018-04-10T16:01:54.100Z,3.17
2018-04-10T16:07:44.775Z,2.59
2018-04-10T16:13:35.498Z,2.83
2018-04-10T16:19:26.249Z,2.82
2018-04-10T16:25:16.886Z,2.46
2018-04-10T16:31:07.615Z,2.79
2018-04-10T16:36:58.329Z,3.55
2018-04-10T16:42:49.045Z,3.33
2018-04-10T16:48:39.677Z,3.4
2018-04-10T16:54:30.363Z,3.84
2018-04-10T17:00:21.062Z,4.14
2018-04-10T17:06:11.750Z,4.41
2018-04-10T17:12:02.441Z,4.72
2018-04-10T17:17:53.183Z,4.82
2018-04-10T17:23:43.836Z,5.75
2018-04-10T17:29:34.558Z,5.12
2018-04-10T17:35:25.267Z,4.16
2018-04-10T17:41:15.924Z,3.58
2018-04-10T17:47:06.576Z,3.5
2018-04-10T17:52:57.267Z,3.07
2018-04-10T17:58:47.985Z,2.71
2018-04-10T18:04:38.645Z,2.56
2018-04-10T18:10:29.373Z,2.39
2018-04-10T18:16:20.022Z,2.57
2018-04-10T18:22:10.718Z,2.44
2018-04-10T18:28:01.479Z,2.92
2018-04-10T18:33:52.103Z,3.26
2018-04-10T18:39:42.764Z,3.01
2018-04-10T18:45:33.472Z,3.31
2018-04-10T18:51:24.171Z,3.13
2018-04-10T18:57:14.823Z,3.45
2018-04-10T19:03:05.520Z,3.25
2018-04-10T19:08:56.243Z,3.11
2018-04-10T19:14:46.916Z,3.4
2018-04-10T19:20:37.555Z,3.48
2018-04-10T19:26:28.297Z,3.19
2018-04-10T19:32:18.975Z,2.76
2018-04-10T19:38:09.624Z,3.58
2018-04-10T19:44:00.336Z,3.77
2018-04-10T19:49:50.975Z,4.26
2018-04-10T19:55:44.963Z,4.31
2018-04-10T20:01:32.313Z,5.47
2018-04-10T20:07:23.011Z,7.28
2018-04-10T20:13:13.679Z,6.8
2018-04-10T20:19:04.409Z,8.07
2018-04-10T20:24:55.035Z,7.69
2018-04-10T20:30:45.733Z,8.88
2018-04-10T20:36:36.395Z,8.21
2018-04-10T20:42:27.086Z,8.35
2018-04-10T20:48:17.756Z,5
2018-04-10T20:54:08.440Z,4.41
2018-04-10T20:59:59.093Z,4.16
2018-04-10T21:05:49.770Z,4.05
2018-04-10T21:11:40.502Z,3.03
2018-04-10T21:17:31.161Z,3.67
2018-04-10T21:23:21.873Z,3.87
2018-04-10T21:29:12.498Z,5.58
2018-04-10T21:35:03.174Z,5.41
2018-04-10T21:40:53.852Z,5.58
2018-04-10T21:46:44.520Z,4.99
2018-04-10T21:52:35.282Z,4.44
2018-04-10T21:58:25.870Z,4.43
2018-04-10T22:04:16.534Z,4.3
2018-04-10T22:10:07.218Z,3.28
2018-04-10T22:15:57.914Z,2.91
2018-04-10T22:21:48.563Z,2.75
2018-04-10T22:27:39.254Z,3.3
2018-04-10T22:33:29.885Z,3.55
2018-04-10T22:39:20.506Z,3.29
2018-04-10T22:45:11.116Z,3.67
2018-04-10T22:51:01.803Z,3.34
2018-04-10T22:56:52.479Z,5.75
2018-04-10T23:02:43.142Z,5.57
2018-04-10T23:08:33.820Z,5.53
2018-04-10T23:14:24.553Z,6.08
2018-04-10T23:20:15.200Z,5.07
2018-04-10T23:26:05.889Z,4.18
2018-04-10T23:31:56.581Z,4.46
2018-04-10T23:37:47.222Z,3.77
2018-04-10T23:43:37.899Z,4.57
2018-04-10T23:49:28.605Z,4.8
2018-04-10T23:55:19.236Z,5.81
